Time;durP1;ratioP1;P1;durP2;ratioP2;P2;SDS_P1;SDS_P2;PMS_P1;PMS_P2;Temp;Humidity;BMP_temperature;BMP_pressure;BME280_temperature;BME280_humidity;BME280_pressure;Samples;Min_cycle;Max_cycle;Signal;HPM_P1;HPM_P2
2021/06/27 00:00:45;;;;;;;9.10;3.58;;;;;;;17.56;60.61;101165.59;5064267;28;20071;-85
2021/06/27 00:03:15;;;;;;;7.90;3.20;;;;;;;17.51;60.91;101161.56;5060550;28;20060;-81
2021/06/27 00:05:43;;;;;;;8.68;3.78;;;;;;;17.40;61.39;101159.78;5072879;28;20052;-82
2021/06/27 00:08:12;;;;;;;4.88;3.50;;;;;;;17.54;61.41;101161.34;5052224;28;20207;-84
2021/06/27 00:10:41;;;;;;;6.55;4.22;;;;;;;17.41;61.75;101164.97;5060956;28;20063;-83
2021/06/27 00:13:08;;;;;;;6.32;3.65;;;;;;;17.31;62.26;101163.16;5053334;28;20048;-83
2021/06/27 00:15:42;;;;;;;6.60;3.83;;;;;;;17.31;62.26;101166.66;5067201;28;20052;-84
2021/06/27 00:18:11;;;;;;;5.88;4.00;;;;;;;17.16;62.71;101158.09;5062538;28;20067;-83
2021/06/27 00:20:42;;;;;;;6.40;4.03;;;;;;;17.03;63.60;101161.81;5085989;28;20120;-84
2021/06/27 00:23:11;;;;;;;10.15;4.25;;;;;;;16.99;63.92;101166.53;5063190;28;20051;-83
2021/06/27 00:25:39;;;;;;;4.88;4.18;;;;;;;16.91;64.13;101153.81;5053987;28;20056;-83
2021/06/27 00:28:06;;;;;;;7.63;4.22;;;;;;;16.83;64.25;101155.34;5081800;28;20056;-83
2021/06/27 00:30:35;;;;;;;6.78;4.18;;;;;;;16.84;64.32;101144.63;5068114;28;20131;-85
2021/06/27 00:33:04;;;;;;;4.07;3.63;;;;;;;16.91;63.33;101147.63;5034952;28;20052;-84
2021/06/27 00:35:32;;;;;;;6.00;3.72;;;;;;;16.92;63.52;101144.84;5049627;28;20217;-84
2021/06/27 00:38:00;;;;;;;5.30;3.95;;;;;;;16.92;63.88;101149.31;5034889;28;20428;-83
2021/06/27 00:40:28;;;;;;;11.40;3.45;;;;;;;16.81;63.55;101142.19;5084514;28;20036;-83
2021/06/27 00:42:57;;;;;;;7.18;4.45;;;;;;;16.75;63.40;101152.44;5082653;28;20048;-83
2021/06/27 00:45:26;;;;;;;4.68;3.70;;;;;;;16.73;63.71;101152.56;5055207;28;20480;-83
2021/06/27 00:47:54;;;;;;;5.45;3.88;;;;;;;16.80;63.59;101155.59;5086192;28;20329;-83
2021/06/27 00:50:24;;;;;;;6.40;3.72;;;;;;;16.68;63.94;101147.56;5066594;28;20075;-83
2021/06/27 00:52:51;;;;;;;4.88;3.42;;;;;;;16.92;63.51;101149.31;5058716;28;20497;-83
2021/06/27 00:55:19;;;;;;;4.75;3.67;;;;;;;16.75;64.03;101149.78;5086494;28;20493;-83
2021/06/27 00:57:50;;;;;;;6.55;3.65;;;;;;;16.59;64.24;101147.41;5049590;28;20462;-82
2021/06/27 01:00:23;;;;;;;5.32;3.33;;;;;;;16.56;64.05;101148.47;5057054;28;20397;-83
2021/06/27 01:02:50;;;;;;;4.70;3.00;;;;;;;16.58;65.59;101145.72;5077371;28;20158;-84
2021/06/27 01:05:24;;;;;;;7.82;3.90;;;;;;;16.40;66.03;101146.16;5060210;28;20068;-84
2021/06/27 01:07:53;;;;;;;10.70;4.57;;;;;;;16.47;65.81;101143.88;5034701;28;20048;-83
2021/06/27 01:10:20;;;;;;;7.72;3.92;;;;;;;16.30;66.06;101141.63;5023357;28;20040;-83
2021/06/27 01:12:48;;;;;;;5.97;3.67;;;;;;;16.39;66.45;101138.28;5050578;28;20458;-83
2021/06/27 01:15:16;;;;;;;6.05;3.92;;;;;;;16.48;65.38;101136.72;5060985;28;20043;-83
2021/06/27 01:17:46;;;;;;;5.75;4.03;;;;;;;16.35;65.05;101139.50;5066696;28;20051;-83
2021/06/27 01:20:22;;;;;;;4.65;3.47;;;;;;;16.57;64.03;101141.34;5047379;28;20044;-83
2021/06/27 01:22:50;;;;;;;4.25;2.83;;;;;;;16.54;64.03;101139.78;5036900;28;20204;-84
2021/06/27 01:25:22;;;;;;;6.03;3.95;;;;;;;16.50;64.32;101134.81;5058427;28;20056;-83
2021/06/27 01:27:50;;;;;;;9.07;6.28;;;;;;;16.42;65.89;101130.91;5062328;28;20098;-83
2021/06/27 01:30:17;;;;;;;7.47;5.47;;;;;;;16.26;66.51;101124.25;5051324;28;20079;-82
2021/06/27 01:32:46;;;;;;;8.15;5.05;;;;;;;16.16;66.58;101119.59;5048637;28;20303;-83
2021/06/27 01:35:19;;;;;;;5.20;4.25;;;;;;;16.18;66.83;101116.84;5069485;28;20068;-83
2021/06/27 01:37:48;;;;;;;6.28;4.13;;;;;;;16.04;67.15;101109.91;5038747;28;20131;-84
2021/06/27 01:40:16;;;;;;;6.30;4.60;;;;;;;16.06;67.36;101113.28;5059495;28;20094;-83
2021/06/27 01:42:44;;;;;;;7.43;3.83;;;;;;;16.04;67.03;101107.25;5060159;28;20392;-82
2021/06/27 01:45:11;;;;;;;4.82;4.03;;;;;;;16.11;66.56;101100.50;5052674;28;20485;-82
2021/06/27 01:47:38;;;;;;;4.63;3.75;;;;;;;16.20;66.01;101097.16;5058166;28;20098;-83
2021/06/27 01:50:08;;;;;;;5.85;3.90;;;;;;;16.23;66.65;101101.41;5052587;28;20378;-83
2021/06/27 01:52:36;;;;;;;6.13;4.00;;;;;;;15.96;67.58;101096.34;5065696;28;20126;-84
2021/06/27 01:55:05;;;;;;;6.47;3.90;;;;;;;15.81;68.04;101100.13;5053632;28;20360;-83
2021/06/27 01:57:32;;;;;;;5.20;4.20;;;;;;;15.79;68.36;101104.69;5036397;28;20068;-84
2021/06/27 01:59:59;;;;;;;4.95;3.72;;;;;;;15.87;67.81;101094.34;5050576;28;20070;-82
2021/06/27 02:02:27;;;;;;;5.40;3.80;;;;;;;15.97;67.05;101091.88;5081047;28;20135;-82
2021/06/27 02:04:55;;;;;;;5.65;3.33;;;;;;;15.95;67.38;101092.00;5078828;28;20048;-83
2021/06/27 02:07:22;;;;;;;4.25;3.60;;;;;;;15.83;67.72;101100.84;5079973;28;20072;-82
2021/06/27 02:09:50;;;;;;;5.50;4.10;;;;;;;15.72;68.04;101106.13;5057164;28;20424;-83
2021/06/27 02:12:17;;;;;;;5.38;4.15;;;;;;;15.62;69.02;101109.38;5055937;28;20301;-82
2021/06/27 02:14:44;;;;;;;7.68;5.18;;;;;;;15.58;69.85;101107.94;5064376;28;20048;-83
2021/06/27 02:17:11;;;;;;;6.55;4.00;;;;;;;15.46;70.05;101095.53;5040504;28;20087;-83
2021/06/27 02:19:39;;;;;;;6.30;4.38;;;;;;;15.37;70.52;101096.19;5059124;28;20109;-83
2021/06/27 02:22:06;;;;;;;5.03;4.22;;;;;;;15.24;70.71;101103.31;5057756;28;20131;-83
2021/06/27 02:24:34;;;;;;;7.82;4.38;;;;;;;15.13;71.59;101091.69;5051387;28;20044;-84
2021/06/27 02:27:02;;;;;;;5.68;4.50;;;;;;;15.16;71.32;101094.09;5019277;28;20032;-84
2021/06/27 02:29:29;;;;;;;7.40;4.05;;;;;;;15.14;71.50;101101.31;5074268;28;20155;-83
2021/06/27 02:31:59;;;;;;;5.30;4.50;;;;;;;15.62;70.63;101093.44;5058364;28;20060;-82
2021/06/27 02:34:26;;;;;;;5.82;4.82;;;;;;;15.74;69.68;101098.88;5054694;28;20504;-84
2021/06/27 02:36:54;;;;;;;6.72;4.55;;;;;;;15.69;69.73;101094.75;5081833;28;20144;-83
2021/06/27 02:39:21;;;;;;;7.35;4.65;;;;;;;15.76;69.70;101092.50;5039489;28;20174;-83
2021/06/27 02:41:48;;;;;;;5.22;3.38;;;;;;;15.48;70.42;101096.25;5054047;28;20151;-83
2021/06/27 02:44:16;;;;;;;7.97;3.58;;;;;;;15.41;70.93;101092.38;5061569;28;20131;-82
2021/06/27 02:46:43;;;;;;;4.75;4.15;;;;;;;15.25;71.48;101091.75;5059141;28;20044;-82
2021/06/27 02:49:10;;;;;;;6.55;4.75;;;;;;;15.18;71.81;101078.94;5038476;28;20445;-83
2021/06/27 02:51:37;;;;;;;7.32;4.65;;;;;;;15.35;71.91;101087.47;5079446;28;20321;-83
2021/06/27 02:54:05;;;;;;;6.00;4.50;;;;;;;15.36;71.42;101086.53;5060919;28;20102;-83
2021/06/27 02:56:32;;;;;;;5.82;4.55;;;;;;;15.36;71.60;101086.53;5078303;28;20123;-83
2021/06/27 02:58:59;;;;;;;7.70;4.88;;;;;;;15.55;70.97;101080.75;5037011;28;20481;-84
2021/06/27 03:01:26;;;;;;;6.30;4.80;;;;;;;15.50;70.92;101082.91;5042576;28;20049;-83
2021/06/27 03:03:54;;;;;;;7.00;4.60;;;;;;;15.38;71.36;101077.50;5046577;28;20097;-83
2021/06/27 03:06:21;;;;;;;7.18;4.72;;;;;;;15.27;71.55;101084.56;5072283;28;20144;-83
2021/06/27 03:08:48;;;;;;;8.52;4.28;;;;;;;15.22;71.58;101076.91;5080885;28;20055;-84
2021/06/27 03:11:17;;;;;;;5.10;4.47;;;;;;;15.17;72.12;101079.03;5047499;28;20465;-83
2021/06/27 03:13:44;;;;;;;6.35;4.63;;;;;;;15.16;72.09;101083.50;5052985;28;20047;-84
2021/06/27 03:16:11;;;;;;;7.25;4.60;;;;;;;15.20;71.69;101084.97;5079570;28;20152;-84
2021/06/27 03:18:39;;;;;;;7.90;4.60;;;;;;;15.47;71.10;101080.47;5030982;28;20144;-84
2021/06/27 03:21:06;;;;;;;9.02;4.35;;;;;;;15.74;70.07;101089.09;5054059;28;20518;-83
2021/06/27 03:23:34;;;;;;;5.72;4.53;;;;;;;15.93;69.54;101093.88;5041967;28;20452;-83
2021/06/27 03:26:01;;;;;;;8.20;4.85;;;;;;;15.79;69.87;101099.38;5072883;28;20249;-84
2021/06/27 03:28:33;;;;;;;5.20;4.70;;;;;;;15.68;70.88;101100.16;5042200;28;20071;-82
2021/06/27 03:31:01;;;;;;;9.45;5.57;;;;;;;15.79;70.32;101100.22;5061416;28;20048;-82
2021/06/27 03:33:28;;;;;;;8.25;4.63;;;;;;;15.93;69.85;101100.03;5047798;28;20044;-82
2021/06/27 03:35:55;;;;;;;7.50;5.15;;;;;;;15.86;70.15;101109.44;5054371;28;20059;-82
2021/06/27 03:38:38;;;;;;;6.15;5.00;;;;;;;15.82;70.42;101105.31;5044375;28;20071;-82
2021/06/27 03:41:05;;;;;;;11.05;5.93;;;;;;;15.87;70.06;101095.19;5076275;28;20056;-83
2021/06/27 03:43:33;;;;;;;7.88;5.15;;;;;;;16.08;68.91;101094.59;5071810;28;20042;-84
2021/06/27 03:46:00;;;;;;;9.80;4.88;;;;;;;16.14;67.79;101094.97;5064764;28;20463;-82
2021/06/27 03:48:28;;;;;;;5.95;4.70;;;;;;;16.12;68.36;101096.91;5052589;28;20131;-83
2021/06/27 03:50:55;;;;;;;9.63;5.43;;;;;;;16.18;68.48;101092.94;5059394;28;20090;-83
2021/06/27 03:53:22;;;;;;;6.43;4.70;;;;;;;16.20;68.46;101096.31;5046637;28;20488;-83
2021/06/27 03:55:50;;;;;;;7.18;5.55;;;;;;;16.29;68.15;101100.09;5062554;28;20058;-83
2021/06/27 03:58:17;;;;;;;9.02;5.00;;;;;;;16.31;68.37;101101.66;5045833;28;20136;-84
2021/06/27 04:00:44;;;;;;;5.32;4.50;;;;;;;16.42;67.82;101106.16;5081807;28;20147;-83
2021/06/27 04:03:11;;;;;;;6.07;5.05;;;;;;;16.46;67.56;101108.47;5087935;28;20143;-84
2021/06/27 04:05:38;;;;;;;6.78;5.15;;;;;;;16.46;67.33;101112.94;5061462;28;20119;-83
2021/06/27 04:08:05;;;;;;;6.10;5.13;;;;;;;16.49;67.33;101115.38;5052840;28;20555;-84
2021/06/27 04:10:33;;;;;;;9.40;5.10;;;;;;;16.67;66.40;101111.31;5068104;28;20135;-83
2021/06/27 04:13:01;;;;;;;6.30;5.53;;;;;;;16.81;66.26;101114.75;5046158;28;20533;-83
2021/06/27 04:15:28;;;;;;;6.50;4.55;;;;;;;16.95;65.38;101117.19;5054605;28;20041;-83
2021/06/27 04:17:56;;;;;;;6.07;4.85;;;;;;;17.11;64.53;101112.38;5052985;28;20056;-83
2021/06/27 04:20:23;;;;;;;5.15;4.65;;;;;;;17.33;63.39;101118.63;5057154;28;20131;-83
2021/06/27 04:22:50;;;;;;;6.13;4.70;;;;;;;17.61;62.26;101106.66;5087033;28;20060;-84
2021/06/27 04:25:17;;;;;;;7.20;4.63;;;;;;;17.99;61.63;101108.84;5049804;28;20112;-83
2021/06/27 04:27:44;;;;;;;6.85;4.55;;;;;;;19.00;58.89;101116.31;5059795;28;20123;-82
2021/06/27 04:30:12;;;;;;;6.85;4.82;;;;;;;19.89;55.29;101116.50;5041156;28;20041;-83
2021/06/27 04:32:39;;;;;;;7.10;4.90;;;;;;;21.47;52.35;101114.13;5075774;28;20139;-82
2021/06/27 04:35:07;;;;;;;9.10;4.43;;;;;;;23.62;47.05;101103.88;5065142;28;20094;-82
2021/06/27 04:37:36;;;;;;;6.63;3.78;;;;;;;24.79;42.84;101105.50;5059669;28;20143;-82
2021/06/27 04:40:04;;;;;;;4.50;4.05;;;;;;;25.13;41.54;101110.69;5057072;28;20101;-83
2021/06/27 04:42:31;;;;;;;6.50;3.72;;;;;;;26.77;38.41;101107.75;5061808;28;20052;-83
2021/06/27 04:45:00;;;;;;;5.60;4.18;;;;;;;27.08;37.26;101104.88;5084392;28;20486;-83
2021/06/27 04:47:27;;;;;;;8.38;4.60;;;;;;;27.39;35.53;101104.72;5078271;28;20143;-83
2021/06/27 04:49:54;;;;;;;4.35;3.60;;;;;;;29.27;32.92;101107.06;5078008;28;20060;-83
2021/06/27 04:52:24;;;;;;;6.45;3.38;;;;;;;30.21;30.61;101100.88;5057695;28;20045;-84
2021/06/27 04:54:55;;;;;;;4.45;3.80;;;;;;;30.72;29.52;101101.09;5063279;28;20049;-83
2021/06/27 04:57:22;;;;;;;4.75;3.85;;;;;;;31.07;28.55;101106.22;5039862;28;20048;-84
2021/06/27 04:59:49;;;;;;;4.30;3.72;;;;;;;31.09;28.86;101103.31;5073092;28;20056;-85
2021/06/27 05:02:17;;;;;;;4.28;3.88;;;;;;;31.04;28.46;101109.38;5061934;28;20135;-84
2021/06/27 05:04:45;;;;;;;5.25;3.10;;;;;;;31.78;27.17;101108.03;5079726;28;20135;-83
2021/06/27 05:07:12;;;;;;;4.10;3.38;;;;;;;31.73;27.42;101111.41;5050506;28;20132;-85
2021/06/27 05:09:40;;;;;;;4.03;3.63;;;;;;;30.77;28.57;101119.50;5063085;28;20074;-84
2021/06/27 05:12:07;;;;;;;4.55;3.88;;;;;;;30.66;28.80;101123.63;5081284;28;20073;-82
2021/06/27 05:14:35;;;;;;;4.68;3.72;;;;;;;31.20;28.27;101125.22;5061095;28;20058;-83
2021/06/27 05:17:02;;;;;;;4.93;3.75;;;;;;;31.58;27.15;101126.38;5034468;28;20131;-84
2021/06/27 05:19:29;;;;;;;5.70;3.80;;;;;;;32.98;26.01;101119.72;5074492;28;20101;-85
2021/06/27 05:21:56;;;;;;;3.75;3.45;;;;;;;33.10;25.76;101113.47;5045639;28;20040;-85
2021/06/27 05:24:24;;;;;;;4.80;4.40;;;;;;;31.60;27.13;101116.09;5051153;28;20716;-84
2021/06/27 05:26:51;;;;;;;5.03;4.15;;;;;;;32.82;26.00;101112.06;5057473;28;20378;-84
2021/06/27 05:29:18;;;;;;;5.82;3.47;;;;;;;33.11;25.47;101107.00;5045990;28;20123;-84
2021/06/27 05:31:45;;;;;;;4.78;3.67;;;;;;;32.27;26.40;101107.31;5032952;28;20064;-85
2021/06/27 05:34:13;;;;;;;4.00;3.70;;;;;;;32.55;25.80;101100.59;5053064;28;20082;-86
2021/06/27 05:36:40;;;;;;;5.15;4.10;;;;;;;32.45;26.16;101103.84;5075489;28;20521;-85
2021/06/27 05:39:09;;;;;;;4.38;3.78;;;;;;;33.12;25.16;101101.28;5042056;28;20450;-85
2021/06/27 05:41:37;;;;;;;4.53;4.05;;;;;;;33.03;25.19;101105.38;5043216;28;20055;-85
2021/06/27 05:44:05;;;;;;;4.20;3.80;;;;;;;33.30;24.28;101102.34;5049090;28;20374;-87
2021/06/27 05:46:33;;;;;;;3.72;3.40;;;;;;;32.73;24.85;101106.06;5068047;28;20199;-84
2021/06/27 05:49:02;;;;;;;4.40;3.30;;;;;;;30.15;27.99;101107.97;5063344;28;20062;-84
2021/06/27 05:51:36;;;;;;;3.55;3.25;;;;;;;31.31;27.14;101107.44;5049578;28;20040;-84
2021/06/27 05:54:05;;;;;;;5.70;3.17;;;;;;;33.73;24.00;101105.78;5059946;28;20062;-86
2021/06/27 05:56:32;;;;;;;4.93;3.53;;;;;;;34.25;22.73;101105.22;5057303;28;20056;-85
2021/06/27 05:59:00;;;;;;;3.88;3.45;;;;;;;33.94;23.09;101107.16;5031790;28;20155;-86
2021/06/27 06:01:27;;;;;;;3.80;3.25;;;;;;;34.82;21.81;101097.31;5035045;28;20048;-84
2021/06/27 06:03:54;;;;;;;6.93;3.40;;;;;;;33.81;23.12;101103.78;5046391;28;20068;-85
2021/06/27 06:06:21;;;;;;;3.03;2.83;;;;;;;34.50;21.69;101105.88;5072129;28;20035;-84
2021/06/27 06:08:49;;;;;;;3.25;2.90;;;;;;;34.08;21.92;101116.00;5052490;28;20048;-85
2021/06/27 06:11:17;;;;;;;3.47;3.03;;;;;;;33.63;23.19;101116.41;5073133;28;20045;-85
2021/06/27 06:13:47;;;;;;;3.45;3.00;;;;;;;33.43;23.15;101107.63;5053139;28;20159;-86
2021/06/27 06:16:14;;;;;;;4.00;3.22;;;;;;;31.94;24.88;101110.28;5045390;28;20123;-85
2021/06/27 06:18:44;;;;;;;4.60;3.00;;;;;;;33.82;22.86;101106.28;5074393;28;20201;-86
2021/06/27 06:21:12;;;;;;;4.72;2.92;;;;;;;35.14;21.63;101110.59;5058543;28;20071;-82
2021/06/27 06:23:39;;;;;;;3.72;3.33;;;;;;;34.72;21.40;101108.00;5031800;28;20044;-86
2021/06/27 06:26:07;;;;;;;3.50;3.13;;;;;;;34.71;21.64;101104.44;5052118;28;20150;-85
2021/06/27 06:28:34;;;;;;;5.78;3.20;;;;;;;33.89;22.72;101120.66;5053783;28;20119;-86
2021/06/27 06:31:02;;;;;;;5.90;3.33;;;;;;;34.01;22.57;101120.75;5045939;28;20142;-85
2021/06/27 06:33:29;;;;;;;3.72;3.22;;;;;;;35.24;21.40;101117.13;5039133;28;20040;-86
2021/06/27 06:35:56;;;;;;;5.07;3.13;;;;;;;35.91;20.73;101118.44;5052884;28;20067;-86
2021/06/27 06:38:24;;;;;;;3.42;3.10;;;;;;;35.76;20.63;101117.09;5035163;28;20049;-86
2021/06/27 06:40:51;;;;;;;2.70;2.47;;;;;;;35.66;19.95;101107.81;5047623;28;20057;-85
2021/06/27 06:43:18;;;;;;;3.55;2.65;;;;;;;35.67;20.73;101113.09;5079184;28;20078;-87
2021/06/27 06:45:45;;;;;;;4.18;2.92;;;;;;;35.95;20.40;101115.00;5048664;28;20033;-87
2021/06/27 06:48:13;;;;;;;5.50;3.20;;;;;;;36.68;19.11;101115.09;5052122;28;20490;-86
2021/06/27 06:50:40;;;;;;;4.45;3.47;;;;;;;37.01;19.16;101109.53;5061066;28;20132;-85
2021/06/27 06:53:08;;;;;;;4.25;2.72;;;;;;;37.04;18.98;101108.22;5073245;28;20171;-86
2021/06/27 06:55:35;;;;;;;4.35;3.28;;;;;;;36.85;19.18;101109.56;5058511;28;20032;-86
2021/06/27 06:58:04;;;;;;;3.42;2.78;;;;;;;34.67;21.18;101116.09;5041164;28;20044;-86
2021/06/27 07:00:31;;;;;;;3.17;2.88;;;;;;;36.66;19.62;101115.34;5068561;28;20139;-86
2021/06/27 07:03:02;;;;;;;3.92;3.13;;;;;;;37.35;18.84;101108.59;5037421;28;20127;-86
2021/06/27 07:05:30;;;;;;;3.20;2.90;;;;;;;37.15;18.56;101109.16;5057302;28;20116;-87
2021/06/27 07:07:58;;;;;;;4.15;3.00;;;;;;;36.59;19.52;101106.44;5053299;28;20064;-86
2021/06/27 07:10:25;;;;;;;4.15;2.65;;;;;;;36.42;19.56;101100.13;5077387;28;20043;-87
2021/06/27 07:12:52;;;;;;;4.68;3.55;;;;;;;36.18;20.04;101105.78;5063951;28;20042;-84
2021/06/27 07:15:20;;;;;;;4.57;3.42;;;;;;;36.96;19.12;101101.25;5060409;28;20048;-85
2021/06/27 07:17:47;;;;;;;4.65;3.40;;;;;;;37.36;19.04;101104.75;5068338;28;20139;-86
2021/06/27 07:20:14;;;;;;;2.92;2.70;;;;;;;36.75;19.09;101111.09;5088170;28;20071;-84
2021/06/27 07:22:42;;;;;;;3.30;3.00;;;;;;;37.87;18.37;101110.84;5036311;28;20131;-85
2021/06/27 07:25:09;;;;;;;4.05;3.58;;;;;;;37.86;18.29;101104.50;5072805;28;20114;-89
2021/06/27 07:27:37;;;;;;;3.95;3.28;;;;;;;37.60;18.94;101108.06;5063775;28;20049;-85
2021/06/27 07:30:06;;;;;;;2.85;2.65;;;;;;;38.09;18.40;101108.84;5089175;28;20135;-87
2021/06/27 07:32:34;;;;;;;3.50;3.13;;;;;;;37.52;19.12;101103.06;5064540;28;20068;-86
2021/06/27 07:35:01;;;;;;;3.40;3.10;;;;;;;37.80;18.33;101105.53;5046835;28;20472;-86
2021/06/27 07:37:43;;;;;;;3.75;3.25;;;;;;;37.41;18.70;101110.31;5082742;28;20059;-86
2021/06/27 07:40:11;;;;;;;3.30;3.05;;;;;;;36.13;19.96;101107.63;5023759;28;20209;-85
2021/06/27 07:42:38;;;;;;;4.40;2.95;;;;;;;37.11;19.21;101102.53;5066524;28;20138;-86
2021/06/27 07:45:06;;;;;;;4.20;3.30;;;;;;;37.21;18.94;101100.75;5059677;28;20059;-86
2021/06/27 07:47:34;;;;;;;4.05;3.20;;;;;;;35.68;20.29;101103.78;5049562;28;20042;-86
2021/06/27 07:50:02;;;;;;;4.40;3.30;;;;;;;35.61;20.69;101102.25;5036771;28;20100;-85
2021/06/27 07:52:29;;;;;;;4.35;2.75;;;;;;;35.53;20.83;101100.75;5058776;28;20467;-86
2021/06/27 07:54:56;;;;;;;5.13;2.85;;;;;;;35.59;20.73;101096.22;5066623;28;20612;-86
2021/06/27 07:57:24;;;;;;;3.50;2.85;;;;;;;36.77;19.73;101094.38;5081440;28;20052;-87
2021/06/27 07:59:51;;;;;;;4.13;3.05;;;;;;;36.75;19.61;101089.16;5053198;28;20114;-86
2021/06/27 08:02:18;;;;;;;4.18;3.15;;;;;;;36.86;19.38;101083.78;5059450;28;20104;-88
2021/06/27 08:04:46;;;;;;;4.38;3.25;;;;;;;36.73;19.28;101091.28;5065965;28;20047;-88
2021/06/27 08:07:13;;;;;;;3.42;2.92;;;;;;;35.75;20.44;101085.28;5071155;28;20032;-88
2021/06/27 08:09:40;;;;;;;3.10;2.85;;;;;;;35.43;21.01;101090.38;5049905;28;20147;-86
2021/06/27 08:12:08;;;;;;;4.13;2.75;;;;;;;35.61;20.61;101085.81;5058890;28;20072;-86
2021/06/27 08:14:35;;;;;;;5.88;2.80;;;;;;;36.52;19.86;101081.09;5059595;28;20136;-85
2021/06/27 08:17:02;;;;;;;3.03;2.70;;;;;;;36.04;20.31;101078.97;5050475;28;20052;-86
2021/06/27 08:19:30;;;;;;;3.50;3.03;;;;;;;35.92;20.22;101084.47;5067992;28;20054;-86
2021/06/27 08:21:57;;;;;;;3.83;3.30;;;;;;;37.52;18.68;101079.16;5061664;28;20045;-85
2021/06/27 08:24:25;;;;;;;3.10;2.80;;;;;;;37.58;18.76;101072.63;5048759;28;20043;-85
2021/06/27 08:26:52;;;;;;;3.40;3.10;;;;;;;36.79;19.54;101066.66;5048351;28;20048;-88
2021/06/27 08:29:19;;;;;;;6.82;3.17;;;;;;;37.88;18.32;101068.53;5083195;28;20044;-88
2021/06/27 08:31:46;;;;;;;5.85;2.42;;;;;;;37.02;19.05;101052.75;5049256;28;20112;-86
2021/06/27 08:34:14;;;;;;;4.78;3.45;;;;;;;35.02;21.51;101058.63;5066311;28;20064;-88
2021/06/27 08:36:41;;;;;;;6.20;2.72;;;;;;;32.82;23.95;101059.44;5057544;28;20052;-85
2021/06/27 08:39:08;;;;;;;5.18;2.95;;;;;;;30.91;26.49;101057.78;5060102;28;20549;-85
2021/06/27 08:41:36;;;;;;;3.50;2.58;;;;;;;29.48;28.88;101059.97;5059045;28;20101;-84
2021/06/27 08:44:05;;;;;;;5.05;2.58;;;;;;;29.36;29.39;101059.72;5052955;28;20044;-88
2021/06/27 08:46:44;;;;;;;4.18;2.30;;;;;;;29.31;29.24;101056.75;5052774;28;20040;-87
2021/06/27 08:49:13;;;;;;;5.40;2.90;;;;;;;28.39;30.92;101062.47;5045440;28;20368;-86
2021/06/27 08:51:45;;;;;;;5.13;2.95;;;;;;;27.42;32.30;101062.91;5063702;28;20129;-84
2021/06/27 08:54:13;;;;;;;3.75;3.03;;;;;;;27.58;32.39;101057.28;5052815;28;20040;-85
2021/06/27 08:56:40;;;;;;;2.92;2.63;;;;;;;27.71;32.22;101065.56;5083337;28;20080;-85
2021/06/27 08:59:07;;;;;;;4.97;2.88;;;;;;;27.36;33.23;101067.22;5060207;28;20116;-87
2021/06/27 09:01:34;;;;;;;3.33;2.97;;;;;;;27.36;32.58;101059.13;5066066;28;20055;-88
2021/06/27 09:04:02;;;;;;;3.50;2.50;;;;;;;26.95;33.47;101053.38;5072428;28;20070;-85
2021/06/27 09:06:29;;;;;;;7.10;3.45;;;;;;;26.53;34.78;101062.94;5067694;28;20045;-84
2021/06/27 09:09:17;;;;;;;4.40;3.30;;;;;;;25.90;35.41;101066.84;5082802;28;20090;-86
2021/06/27 09:12:05;;;;;;;3.38;2.45;;;;;;;26.43;34.89;101059.63;5093336;28;20295;-87
2021/06/27 09:14:37;;;;;;;2.60;2.40;;;;;;;26.73;34.48;101055.97;5069309;28;20112;-86
2021/06/27 09:17:15;;;;;;;3.10;2.80;;;;;;;26.51;34.12;101051.47;5064381;28;20044;-85
2021/06/27 09:19:52;;;;;;;3.58;3.28;;;;;;;25.80;35.67;101052.72;5056174;28;20075;-85
2021/06/27 09:22:23;;;;;;;4.50;2.42;;;;;;;26.55;34.54;101043.84;5063485;28;20430;-87
2021/06/27 09:24:51;;;;;;;3.10;2.17;;;;;;;26.54;34.59;101031.38;5060907;28;20048;-87
2021/06/27 09:27:20;;;;;;;3.70;2.60;;;;;;;26.35;35.09;101036.25;5030917;28;20048;-85
2021/06/27 09:29:49;;;;;;;4.82;2.60;;;;;;;26.17;35.35;101033.91;5057438;28;20173;-88
2021/06/27 09:32:22;;;;;;;3.47;2.50;;;;;;;26.26;34.98;101031.97;5039201;28;20094;-86
2021/06/27 09:34:50;;;;;;;4.45;2.80;;;;;;;26.25;35.42;101028.44;5042155;28;20052;-89
2021/06/27 09:37:28;;;;;;;5.03;3.03;;;;;;;26.37;34.92;101036.91;5061250;28;20047;-85
2021/06/27 09:39:59;;;;;;;5.68;2.97;;;;;;;26.74;34.14;101027.09;5054528;28;20052;-87
2021/06/27 09:42:27;;;;;;;6.70;2.85;;;;;;;26.64;34.58;101024.66;5046030;28;20438;-87
2021/06/27 09:45:08;;;;;;;3.10;2.72;;;;;;;26.36;34.68;101034.41;5048983;28;20424;-83
2021/06/27 09:47:36;;;;;;;3.20;2.40;;;;;;;26.15;34.72;101027.00;5051546;28;20055;-87
2021/06/27 09:50:29;;;;;;;4.00;2.40;;;;;;;26.46;34.19;101022.34;5056273;28;20117;-87
2021/06/27 09:53:00;;;;;;;5.05;2.25;;;;;;;26.17;35.35;101030.38;5063879;28;20144;-85
2021/06/27 09:55:27;;;;;;;2.55;2.20;;;;;;;25.99;35.12;101026.13;5075460;28;20055;-84
2021/06/27 09:58:14;;;;;;;4.40;2.85;;;;;;;26.36;35.20;101021.72;5066884;28;20048;-86
2021/06/27 10:00:41;;;;;;;4.63;2.58;;;;;;;26.93;34.39;101017.59;5062584;28;20046;-85
2021/06/27 10:03:10;;;;;;;2.70;2.50;;;;;;;27.14;33.58;101023.09;5065649;28;20059;-86
2021/06/27 10:05:37;;;;;;;4.75;2.60;;;;;;;27.39;33.33;101015.50;5094252;28;20438;-86
2021/06/27 10:08:04;;;;;;;3.63;2.90;;;;;;;27.35;33.44;101016.06;5072893;28;20072;-85
2021/06/27 10:10:32;;;;;;;3.20;2.35;;;;;;;27.04;34.03;101018.97;5054904;28;20105;-86
2021/06/27 10:13:00;;;;;;;4.63;2.55;;;;;;;27.11;33.83;101014.50;5072950;28;20075;-84
2021/06/27 10:15:44;;;;;;;6.32;2.70;;;;;;;27.09;33.54;101025.50;5072768;28;20089;-86
2021/06/27 10:18:12;;;;;;;4.30;2.67;;;;;;;26.80;34.19;101017.44;5060224;28;20072;-85
2021/06/27 10:20:40;;;;;;;2.95;2.63;;;;;;;26.01;35.36;101018.69;5047222;28;20112;-84
2021/06/27 10:23:08;;;;;;;3.90;2.47;;;;;;;25.60;36.13;101028.91;5050124;28;20083;-86
2021/06/27 10:25:36;;;;;;;6.60;2.92;;;;;;;25.44;35.87;101020.91;5041452;28;20077;-88
2021/06/27 10:28:03;;;;;;;4.68;2.53;;;;;;;25.66;35.13;101013.88;5070367;28;20487;-86
2021/06/27 10:30:34;;;;;;;2.55;2.30;;;;;;;26.13;35.26;101013.69;5073593;28;20056;-87
2021/06/27 10:33:05;;;;;;;2.50;2.08;;;;;;;26.37;33.46;101022.56;5056807;28;20799;-86
2021/06/27 10:35:33;;;;;;;2.55;2.10;;;;;;;26.47;33.22;101012.38;5060193;28;20048;-87
2021/06/27 10:38:04;;;;;;;3.13;2.35;;;;;;;27.14;32.10;101016.84;5073123;28;20060;-87
2021/06/27 10:40:48;;;;;;;3.92;2.05;;;;;;;26.56;32.17;101011.25;5049189;28;20071;-86
2021/06/27 10:43:16;;;;;;;3.38;2.30;;;;;;;26.58;31.67;101013.78;5071655;28;20128;-86
2021/06/27 10:45:46;;;;;;;3.08;2.20;;;;;;;26.59;31.58;101012.75;5066576;28;20387;-87
2021/06/27 10:48:32;;;;;;;2.30;1.90;;;;;;;26.37;31.94;101011.78;5080752;28;20448;-87
2021/06/27 10:51:08;;;;;;;6.53;2.05;;;;;;;26.49;31.63;101004.94;5099747;28;21226;-87
2021/06/27 10:54:14;;;;;;;4.82;1.70;;;;;;;26.70;31.20;101006.88;5053205;28;20052;-85
2021/06/27 10:57:16;;;;;;;3.08;2.30;;;;;;;26.73;30.84;101001.13;5086923;28;20048;-88
2021/06/27 10:59:47;;;;;;;2.97;1.85;;;;;;;26.76;31.43;101001.59;5064046;28;20334;-86
2021/06/27 11:02:20;;;;;;;4.32;2.58;;;;;;;26.55;32.52;100997.94;5059925;28;20090;-85
2021/06/27 11:04:49;;;;;;;4.82;2.45;;;;;;;26.94;32.07;100990.38;5037691;28;20056;-88
2021/06/27 11:07:31;;;;;;;3.45;2.17;;;;;;;26.85;33.40;100993.38;5044475;28;20504;-87
2021/06/27 11:10:17;;;;;;;4.68;2.80;;;;;;;26.67;34.15;101010.81;5058417;28;20045;-88
2021/06/27 11:13:00;;;;;;;3.45;2.67;;;;;;;27.02;33.14;101003.81;5051716;28;20489;-87
2021/06/27 11:15:30;;;;;;;8.57;2.38;;;;;;;27.21;32.99;100991.56;5050832;28;20445;-87
2021/06/27 11:17:59;;;;;;;6.95;2.53;;;;;;;27.51;33.06;100991.47;5051367;28;20048;-85
2021/06/27 11:20:32;;;;;;;2.80;2.50;;;;;;;27.25;32.97;100995.56;5057429;28;20048;-86
2021/06/27 11:23:01;;;;;;;3.33;2.55;;;;;;;27.99;31.84;100992.56;5041450;28;20105;-85
2021/06/27 11:25:35;;;;;;;5.05;2.70;;;;;;;27.16;33.47;100980.50;5044217;28;20048;-87
2021/06/27 11:28:19;;;;;;;;;;;;;;;27.27;33.23;100989.97;5066381;28;20050;-84
2021/06/27 11:31:30;;;;;;;4.15;2.83;;;;;;;27.32;32.91;100994.81;5076718;28;19930;-85
2021/06/27 11:34:19;;;;;;;5.93;2.80;;;;;;;27.07;32.94;100994.28;5029456;28;20060;-86